sensor_id;sensor_type;location;lat;lon;timestamp;P1;durP1;ratioP1;P2;durP2;ratioP2
11533;SDS011;5823;50.588;8.462;2022-07-25T00:01:20;1.13;;;1.02;;
11533;SDS011;5823;50.588;8.462;2022-07-25T00:03:47;0.85;;;0.85;;
11533;SDS011;5823;50.588;8.462;2022-07-25T00:06:13;1.00;;;0.95;;
11533;SDS011;5823;50.588;8.462;2022-07-25T00:08:39;1.10;;;1.10;;
11533;SDS011;5823;50.588;8.462;2022-07-25T00:11:06;1.30;;;1.20;;
11533;SDS011;5823;50.588;8.462;2022-07-25T00:13:33;1.30;;;1.20;;
11533;SDS011;5823;50.588;8.462;2022-07-25T00:16:00;1.30;;;1.20;;
11533;SDS011;5823;50.588;8.462;2022-07-25T00:18:26;1.00;;;1.00;;
11533;SDS011;5823;50.588;8.462;2022-07-25T00:20:52;1.40;;;1.30;;
11533;SDS011;5823;50.588;8.462;2022-07-25T00:23:19;0.80;;;0.80;;
11533;SDS011;5823;50.588;8.462;2022-07-25T00:25:45;0.80;;;0.80;;
11533;SDS011;5823;50.588;8.462;2022-07-25T00:28:11;0.93;;;0.90;;
11533;SDS011;5823;50.588;8.462;2022-07-25T00:30:39;0.90;;;0.90;;
11533;SDS011;5823;50.588;8.462;2022-07-25T00:33:06;1.20;;;1.10;;
11533;SDS011;5823;50.588;8.462;2022-07-25T00:35:32;1.05;;;0.95;;
11533;SDS011;5823;50.588;8.462;2022-07-25T00:37:58;1.10;;;1.00;;
11533;SDS011;5823;50.588;8.462;2022-07-25T00:40:25;1.00;;;1.00;;
11533;SDS011;5823;50.588;8.462;2022-07-25T00:42:51;1.05;;;1.02;;
11533;SDS011;5823;50.588;8.462;2022-07-25T00:45:18;1.10;;;1.00;;
11533;SDS011;5823;50.588;8.462;2022-07-25T00:47:45;1.10;;;1.00;;
11533;SDS011;5823;50.588;8.462;2022-07-25T00:50:12;0.90;;;0.90;;
11533;SDS011;5823;50.588;8.462;2022-07-25T00:52:38;0.85;;;0.85;;
11533;SDS011;5823;50.588;8.462;2022-07-25T00:55:05;0.80;;;0.80;;
11533;SDS011;5823;50.588;8.462;2022-07-25T00:57:31;0.60;;;0.60;;
11533;SDS011;5823;50.588;8.462;2022-07-25T00:59:58;0.50;;;0.50;;
11533;SDS011;5823;50.588;8.462;2022-07-25T01:02:24;1.35;;;1.10;;
11533;SDS011;5823;50.588;8.462;2022-07-25T01:04:52;1.02;;;0.93;;
11533;SDS011;5823;50.588;8.462;2022-07-25T01:07:19;0.88;;;0.88;;
11533;SDS011;5823;50.588;8.462;2022-07-25T01:09:45;1.00;;;1.00;;
11533;SDS011;5823;50.588;8.462;2022-07-25T01:12:12;1.00;;;1.00;;
11533;SDS011;5823;50.588;8.462;2022-07-25T01:14:38;0.88;;;0.88;;
11533;SDS011;5823;50.588;8.462;2022-07-25T01:17:04;0.82;;;0.82;;
11533;SDS011;5823;50.588;8.462;2022-07-25T01:19:31;0.90;;;0.90;;
11533;SDS011;5823;50.588;8.462;2022-07-25T01:21:58;0.80;;;0.80;;
11533;SDS011;5823;50.588;8.462;2022-07-25T01:24:25;1.05;;;1.00;;
11533;SDS011;5823;50.588;8.462;2022-07-25T01:26:51;0.88;;;0.88;;
11533;SDS011;5823;50.588;8.462;2022-07-25T01:29:18;0.70;;;0.70;;
11533;SDS011;5823;50.588;8.462;2022-07-25T01:31:44;0.70;;;0.70;;
11533;SDS011;5823;50.588;8.462;2022-07-25T01:34:10;0.90;;;0.88;;
11533;SDS011;5823;50.588;8.462;2022-07-25T01:36:37;0.90;;;0.90;;
11533;SDS011;5823;50.588;8.462;2022-07-25T01:39:05;0.90;;;0.90;;
11533;SDS011;5823;50.588;8.462;2022-07-25T01:41:31;0.77;;;0.77;;
11533;SDS011;5823;50.588;8.462;2022-07-25T01:43:57;1.23;;;0.90;;
11533;SDS011;5823;50.588;8.462;2022-07-25T01:46:24;0.80;;;0.80;;
11533;SDS011;5823;50.588;8.462;2022-07-25T01:48:50;0.70;;;0.70;;
11533;SDS011;5823;50.588;8.462;2022-07-25T01:51:16;0.70;;;0.70;;
11533;SDS011;5823;50.588;8.462;2022-07-25T01:53:43;0.75;;;0.75;;
11533;SDS011;5823;50.588;8.462;2022-07-25T01:56:10;0.90;;;0.90;;
11533;SDS011;5823;50.588;8.462;2022-07-25T01:58:37;0.70;;;0.70;;
11533;SDS011;5823;50.588;8.462;2022-07-25T02:01:03;0.70;;;0.70;;
11533;SDS011;5823;50.588;8.462;2022-07-25T02:03:29;0.80;;;0.80;;
11533;SDS011;5823;50.588;8.462;2022-07-25T02:05:56;0.52;;;0.52;;
11533;SDS011;5823;50.588;8.462;2022-07-25T02:08:22;0.70;;;0.70;;
11533;SDS011;5823;50.588;8.462;2022-07-25T02:10:49;0.80;;;0.80;;
11533;SDS011;5823;50.588;8.462;2022-07-25T02:13:18;0.88;;;0.88;;
11533;SDS011;5823;50.588;8.462;2022-07-25T02:15:44;0.60;;;0.60;;
11533;SDS011;5823;50.588;8.462;2022-07-25T02:18:10;0.65;;;0.65;;
11533;SDS011;5823;50.588;8.462;2022-07-25T02:20:37;0.90;;;0.90;;
11533;SDS011;5823;50.588;8.462;2022-07-25T02:23:03;1.15;;;1.10;;
11533;SDS011;5823;50.588;8.462;2022-07-25T02:25:30;0.98;;;0.98;;
11533;SDS011;5823;50.588;8.462;2022-07-25T02:27:56;0.80;;;0.80;;
11533;SDS011;5823;50.588;8.462;2022-07-25T02:30:24;1.30;;;1.20;;
11533;SDS011;5823;50.588;8.462;2022-07-25T02:32:50;1.10;;;1.00;;
11533;SDS011;5823;50.588;8.462;2022-07-25T02:35:17;1.02;;;1.02;;
11533;SDS011;5823;50.588;8.462;2022-07-25T02:37:43;0.80;;;0.80;;
11533;SDS011;5823;50.588;8.462;2022-07-25T02:40:10;0.82;;;0.82;;
11533;SDS011;5823;50.588;8.462;2022-07-25T02:42:37;1.00;;;1.00;;
11533;SDS011;5823;50.588;8.462;2022-07-25T02:45:04;1.00;;;0.90;;
11533;SDS011;5823;50.588;8.462;2022-07-25T02:47:32;1.10;;;1.10;;
11533;SDS011;5823;50.588;8.462;2022-07-25T02:49:58;0.70;;;0.70;;
11533;SDS011;5823;50.588;8.462;2022-07-25T02:52:25;0.85;;;0.85;;
11533;SDS011;5823;50.588;8.462;2022-07-25T02:54:51;0.70;;;0.70;;
11533;SDS011;5823;50.588;8.462;2022-07-25T02:57:17;0.85;;;0.85;;
11533;SDS011;5823;50.588;8.462;2022-07-25T02:59:44;1.10;;;1.02;;
11533;SDS011;5823;50.588;8.462;2022-07-25T03:02:10;0.90;;;0.90;;
11533;SDS011;5823;50.588;8.462;2022-07-25T03:04:38;1.05;;;1.05;;
11533;SDS011;5823;50.588;8.462;2022-07-25T03:07:04;1.63;;;1.35;;
11533;SDS011;5823;50.588;8.462;2022-07-25T03:09:31;0.95;;;0.95;;
11533;SDS011;5823;50.588;8.462;2022-07-25T03:11:57;1.02;;;0.93;;
11533;SDS011;5823;50.588;8.462;2022-07-25T03:14:23;0.80;;;0.80;;
11533;SDS011;5823;50.588;8.462;2022-07-25T03:16:50;1.15;;;1.05;;
11533;SDS011;5823;50.588;8.462;2022-07-25T03:19:17;0.90;;;0.90;;
11533;SDS011;5823;50.588;8.462;2022-07-25T03:21:45;0.93;;;0.90;;
11533;SDS011;5823;50.588;8.462;2022-07-25T03:24:11;0.70;;;0.70;;
11533;SDS011;5823;50.588;8.462;2022-07-25T03:26:37;0.55;;;0.55;;
11533;SDS011;5823;50.588;8.462;2022-07-25T03:29:04;1.45;;;1.00;;
11533;SDS011;5823;50.588;8.462;2022-07-25T03:31:31;1.00;;;0.90;;
11533;SDS011;5823;50.588;8.462;2022-07-25T03:33:57;1.05;;;1.00;;
11533;SDS011;5823;50.588;8.462;2022-07-25T03:36:23;1.05;;;1.00;;
11533;SDS011;5823;50.588;8.462;2022-07-25T03:38:51;0.55;;;0.55;;
11533;SDS011;5823;50.588;8.462;2022-07-25T03:41:17;0.90;;;0.90;;
11533;SDS011;5823;50.588;8.462;2022-07-25T03:43:43;0.93;;;0.93;;
11533;SDS011;5823;50.588;8.462;2022-07-25T03:46:10;1.00;;;1.00;;
11533;SDS011;5823;50.588;8.462;2022-07-25T03:48:36;1.08;;;1.08;;
11533;SDS011;5823;50.588;8.462;2022-07-25T03:51:02;1.20;;;1.10;;
11533;SDS011;5823;50.588;8.462;2022-07-25T03:53:29;1.08;;;1.00;;
11533;SDS011;5823;50.588;8.462;2022-07-25T03:55:57;0.80;;;0.80;;
11533;SDS011;5823;50.588;8.462;2022-07-25T03:58:23;0.90;;;0.90;;
11533;SDS011;5823;50.588;8.462;2022-07-25T04:00:49;1.05;;;1.00;;
11533;SDS011;5823;50.588;8.462;2022-07-25T04:03:15;1.20;;;1.10;;
11533;SDS011;5823;50.588;8.462;2022-07-25T04:05:42;1.30;;;1.20;;
11533;SDS011;5823;50.588;8.462;2022-07-25T04:08:08;0.88;;;0.88;;
11533;SDS011;5823;50.588;8.462;2022-07-25T04:10:34;1.15;;;1.10;;
11533;SDS011;5823;50.588;8.462;2022-07-25T04:13:02;0.85;;;0.85;;
11533;SDS011;5823;50.588;8.462;2022-07-25T04:15:29;0.75;;;0.75;;
11533;SDS011;5823;50.588;8.462;2022-07-25T04:17:55;0.90;;;0.90;;
11533;SDS011;5823;50.588;8.462;2022-07-25T04:20:23;1.05;;;1.00;;
11533;SDS011;5823;50.588;8.462;2022-07-25T04:22:49;0.80;;;0.80;;
11533;SDS011;5823;50.588;8.462;2022-07-25T04:25:15;0.70;;;0.70;;
11533;SDS011;5823;50.588;8.462;2022-07-25T04:27:42;0.70;;;0.70;;
11533;SDS011;5823;50.588;8.462;2022-07-25T04:30:11;0.80;;;0.80;;
11533;SDS011;5823;50.588;8.462;2022-07-25T04:32:38;0.70;;;0.70;;
11533;SDS011;5823;50.588;8.462;2022-07-25T04:35:05;0.73;;;0.73;;
11533;SDS011;5823;50.588;8.462;2022-07-25T04:37:31;1.20;;;1.10;;
11533;SDS011;5823;50.588;8.462;2022-07-25T04:40:00;0.80;;;0.80;;
11533;SDS011;5823;50.588;8.462;2022-07-25T04:42:26;1.10;;;1.02;;
11533;SDS011;5823;50.588;8.462;2022-07-25T04:44:52;1.10;;;1.00;;
11533;SDS011;5823;50.588;8.462;2022-07-25T04:47:20;0.77;;;0.77;;
11533;SDS011;5823;50.588;8.462;2022-07-25T04:49:46;0.88;;;0.88;;
11533;SDS011;5823;50.588;8.462;2022-07-25T04:52:13;0.80;;;0.80;;
11533;SDS011;5823;50.588;8.462;2022-07-25T04:54:39;0.70;;;0.70;;
11533;SDS011;5823;50.588;8.462;2022-07-25T04:57:06;0.60;;;0.60;;
11533;SDS011;5823;50.588;8.462;2022-07-25T04:59:32;0.73;;;0.73;;
11533;SDS011;5823;50.588;8.462;2022-07-25T05:01:58;0.77;;;0.77;;
11533;SDS011;5823;50.588;8.462;2022-07-25T05:04:26;0.57;;;0.57;;
11533;SDS011;5823;50.588;8.462;2022-07-25T05:06:53;0.80;;;0.80;;
11533;SDS011;5823;50.588;8.462;2022-07-25T05:09:19;0.70;;;0.70;;
11533;SDS011;5823;50.588;8.462;2022-07-25T05:11:45;0.63;;;0.60;;
11533;SDS011;5823;50.588;8.462;2022-07-25T05:14:12;0.88;;;0.88;;
11533;SDS011;5823;50.588;8.462;2022-07-25T05:16:38;0.73;;;0.73;;
11533;SDS011;5823;50.588;8.462;2022-07-25T05:19:04;0.65;;;0.65;;
11533;SDS011;5823;50.588;8.462;2022-07-25T05:21:33;0.60;;;0.60;;
11533;SDS011;5823;50.588;8.462;2022-07-25T05:24:00;0.70;;;0.65;;
11533;SDS011;5823;50.588;8.462;2022-07-25T05:26:26;0.75;;;0.75;;
11533;SDS011;5823;50.588;8.462;2022-07-25T05:28:52;0.47;;;0.47;;
11533;SDS011;5823;50.588;8.462;2022-07-25T05:31:19;0.93;;;0.93;;
11533;SDS011;5823;50.588;8.462;2022-07-25T05:33:45;0.45;;;0.45;;
11533;SDS011;5823;50.588;8.462;2022-07-25T05:36:11;0.55;;;0.55;;
11533;SDS011;5823;50.588;8.462;2022-07-25T05:38:39;0.63;;;0.63;;
11533;SDS011;5823;50.588;8.462;2022-07-25T05:41:06;0.60;;;0.60;;
11533;SDS011;5823;50.588;8.462;2022-07-25T05:43:32;0.70;;;0.70;;
11533;SDS011;5823;50.588;8.462;2022-07-25T05:45:59;1.65;;;0.60;;
11533;SDS011;5823;50.588;8.462;2022-07-25T05:48:25;0.40;;;0.40;;
11533;SDS011;5823;50.588;8.462;2022-07-25T05:50:52;0.85;;;0.85;;
11533;SDS011;5823;50.588;8.462;2022-07-25T05:53:18;0.70;;;0.70;;
11533;SDS011;5823;50.588;8.462;2022-07-25T05:55:46;0.60;;;0.60;;
11533;SDS011;5823;50.588;8.462;2022-07-25T05:58:12;0.60;;;0.60;;
11533;SDS011;5823;50.588;8.462;2022-07-25T06:00:38;0.50;;;0.50;;
11533;SDS011;5823;50.588;8.462;2022-07-25T06:03:05;0.40;;;0.40;;
11533;SDS011;5823;50.588;8.462;2022-07-25T06:05:31;0.60;;;0.60;;
11533;SDS011;5823;50.588;8.462;2022-07-25T06:07:57;0.90;;;0.90;;
11533;SDS011;5823;50.588;8.462;2022-07-25T06:10:24;0.70;;;0.70;;
11533;SDS011;5823;50.588;8.462;2022-07-25T06:12:52;0.75;;;0.75;;
11533;SDS011;5823;50.588;8.462;2022-07-25T06:15:18;0.70;;;0.70;;
11533;SDS011;5823;50.588;8.462;2022-07-25T06:17:44;0.68;;;0.68;;
11533;SDS011;5823;50.588;8.462;2022-07-25T06:20:11;1.10;;;1.00;;
11533;SDS011;5823;50.588;8.462;2022-07-25T06:22:37;0.70;;;0.70;;
11533;SDS011;5823;50.588;8.462;2022-07-25T06:25:04;0.63;;;0.63;;
11533;SDS011;5823;50.588;8.462;2022-07-25T06:27:31;0.68;;;0.68;;
11533;SDS011;5823;50.588;8.462;2022-07-25T06:29:58;0.70;;;0.70;;
11533;SDS011;5823;50.588;8.462;2022-07-25T06:32:25;0.80;;;0.80;;
11533;SDS011;5823;50.588;8.462;2022-07-25T06:34:51;0.70;;;0.70;;
11533;SDS011;5823;50.588;8.462;2022-07-25T06:37:18;0.55;;;0.55;;
11533;SDS011;5823;50.588;8.462;2022-07-25T06:39:44;0.65;;;0.65;;
11533;SDS011;5823;50.588;8.462;2022-07-25T06:42:11;0.60;;;0.60;;
11533;SDS011;5823;50.588;8.462;2022-07-25T06:44:37;0.68;;;0.68;;
11533;SDS011;5823;50.588;8.462;2022-07-25T06:47:05;0.90;;;0.90;;
11533;SDS011;5823;50.588;8.462;2022-07-25T06:49:36;0.80;;;0.80;;
11533;SDS011;5823;50.588;8.462;2022-07-25T06:52:03;0.68;;;0.68;;
11533;SDS011;5823;50.588;8.462;2022-07-25T06:54:29;0.70;;;0.70;;
11533;SDS011;5823;50.588;8.462;2022-07-25T06:56:55;0.60;;;0.60;;
11533;SDS011;5823;50.588;8.462;2022-07-25T06:59:22;0.60;;;0.60;;
11533;SDS011;5823;50.588;8.462;2022-07-25T07:01:48;0.82;;;0.82;;
11533;SDS011;5823;50.588;8.462;2022-07-25T07:04:16;0.50;;;0.50;;
11533;SDS011;5823;50.588;8.462;2022-07-25T07:06:42;0.65;;;0.65;;
11533;SDS011;5823;50.588;8.462;2022-07-25T07:09:08;0.75;;;0.70;;
11533;SDS011;5823;50.588;8.462;2022-07-25T07:11:35;0.73;;;0.73;;
11533;SDS011;5823;50.588;8.462;2022-07-25T07:14:02;0.85;;;0.85;;
11533;SDS011;5823;50.588;8.462;2022-07-25T07:16:28;0.70;;;0.70;;
11533;SDS011;5823;50.588;8.462;2022-07-25T07:18:55;0.50;;;0.50;;
11533;SDS011;5823;50.588;8.462;2022-07-25T07:21:23;0.60;;;0.60;;
11533;SDS011;5823;50.588;8.462;2022-07-25T07:23:49;0.60;;;0.60;;
11533;SDS011;5823;50.588;8.462;2022-07-25T07:26:16;0.60;;;0.60;;
11533;SDS011;5823;50.588;8.462;2022-07-25T07:28:42;0.73;;;0.73;;
11533;SDS011;5823;50.588;8.462;2022-07-25T07:31:09;0.68;;;0.68;;
11533;SDS011;5823;50.588;8.462;2022-07-25T07:33:35;0.93;;;0.93;;
11533;SDS011;5823;50.588;8.462;2022-07-25T07:36:02;0.75;;;0.75;;
11533;SDS011;5823;50.588;8.462;2022-07-25T07:38:30;0.60;;;0.60;;
11533;SDS011;5823;50.588;8.462;2022-07-25T07:40:56;0.50;;;0.50;;
11533;SDS011;5823;50.588;8.462;2022-07-25T07:43:23;0.60;;;0.60;;
11533;SDS011;5823;50.588;8.462;2022-07-25T07:45:49;0.57;;;0.57;;
11533;SDS011;5823;50.588;8.462;2022-07-25T07:48:16;0.55;;;0.55;;
11533;SDS011;5823;50.588;8.462;2022-07-25T07:50:42;0.90;;;0.90;;
11533;SDS011;5823;50.588;8.462;2022-07-25T07:53:08;0.77;;;0.77;;
11533;SDS011;5823;50.588;8.462;2022-07-25T07:55:36;1.00;;;1.00;;
11533;SDS011;5823;50.588;8.462;2022-07-25T07:58:13;0.90;;;0.90;;
11533;SDS011;5823;50.588;8.462;2022-07-25T08:00:40;0.85;;;0.85;;
11533;SDS011;5823;50.588;8.462;2022-07-25T08:03:07;0.93;;;0.90;;
11533;SDS011;5823;50.588;8.462;2022-07-25T08:05:34;0.90;;;0.90;;
11533;SDS011;5823;50.588;8.462;2022-07-25T08:08:01;1.13;;;1.02;;
11533;SDS011;5823;50.588;8.462;2022-07-25T08:10:28;1.00;;;1.00;;
11533;SDS011;5823;50.588;8.462;2022-07-25T08:12:56;0.88;;;0.88;;
11533;SDS011;5823;50.588;8.462;2022-07-25T08:15:22;0.90;;;0.90;;
11533;SDS011;5823;50.588;8.462;2022-07-25T08:17:49;0.95;;;0.93;;
11533;SDS011;5823;50.588;8.462;2022-07-25T08:20:16;0.98;;;0.98;;
11533;SDS011;5823;50.588;8.462;2022-07-25T08:22:43;0.95;;;0.95;;
11533;SDS011;5823;50.588;8.462;2022-07-25T08:25:12;1.20;;;1.10;;
11533;SDS011;5823;50.588;8.462;2022-07-25T08:27:38;0.95;;;0.95;;
11533;SDS011;5823;50.588;8.462;2022-07-25T08:30:07;1.33;;;1.23;;
11533;SDS011;5823;50.588;8.462;2022-07-25T08:32:34;1.27;;;1.17;;
11533;SDS011;5823;50.588;8.462;2022-07-25T08:35:10;1.10;;;1.10;;
11533;SDS011;5823;50.588;8.462;2022-07-25T08:37:37;1.52;;;1.42;;
11533;SDS011;5823;50.588;8.462;2022-07-25T08:40:04;1.10;;;1.10;;
11533;SDS011;5823;50.588;8.462;2022-07-25T08:42:31;1.40;;;1.30;;
11533;SDS011;5823;50.588;8.462;2022-07-25T08:44:58;1.27;;;1.20;;
11533;SDS011;5823;50.588;8.462;2022-07-25T08:47:26;1.70;;;1.60;;
11533;SDS011;5823;50.588;8.462;2022-07-25T08:49:52;1.90;;;1.80;;
11533;SDS011;5823;50.588;8.462;2022-07-25T08:52:20;1.45;;;1.35;;
11533;SDS011;5823;50.588;8.462;2022-07-25T08:54:48;1.80;;;1.70;;
11533;SDS011;5823;50.588;8.462;2022-07-25T08:57:15;1.70;;;1.60;;
11533;SDS011;5823;50.588;8.462;2022-07-25T08:59:42;1.60;;;1.50;;
11533;SDS011;5823;50.588;8.462;2022-07-25T09:02:11;1.65;;;1.55;;
11533;SDS011;5823;50.588;8.462;2022-07-25T09:04:39;1.55;;;1.45;;
11533;SDS011;5823;50.588;8.462;2022-07-25T09:07:07;2.00;;;1.85;;
11533;SDS011;5823;50.588;8.462;2022-07-25T09:09:34;1.67;;;1.58;;
11533;SDS011;5823;50.588;8.462;2022-07-25T09:12:01;2.00;;;1.80;;
11533;SDS011;5823;50.588;8.462;2022-07-25T09:14:28;1.50;;;1.40;;
11533;SDS011;5823;50.588;8.462;2022-07-25T09:16:55;1.40;;;1.30;;
11533;SDS011;5823;50.588;8.462;2022-07-25T09:19:22;1.60;;;1.50;;
11533;SDS011;5823;50.588;8.462;2022-07-25T09:22:00;1.50;;;1.40;;
11533;SDS011;5823;50.588;8.462;2022-07-25T09:24:27;1.40;;;1.30;;
11533;SDS011;5823;50.588;8.462;2022-07-25T09:26:54;1.50;;;1.40;;
11533;SDS011;5823;50.588;8.462;2022-07-25T09:29:21;1.52;;;1.42;;
11533;SDS011;5823;50.588;8.462;2022-07-25T09:31:48;1.40;;;1.30;;
11533;SDS011;5823;50.588;8.462;2022-07-25T09:34:15;1.60;;;1.50;;
11533;SDS011;5823;50.588;8.462;2022-07-25T09:36:49;1.40;;;1.30;;
11533;SDS011;5823;50.588;8.462;2022-07-25T09:39:17;0.95;;;0.95;;
11533;SDS011;5823;50.588;8.462;2022-07-25T09:41:43;1.23;;;1.17;;
11533;SDS011;5823;50.588;8.462;2022-07-25T09:44:14;1.40;;;1.30;;
11533;SDS011;5823;50.588;8.462;2022-07-25T09:46:40;0.90;;;0.90;;
11533;SDS011;5823;50.588;8.462;2022-07-25T09:49:06;1.17;;;1.17;;
11533;SDS011;5823;50.588;8.462;2022-07-25T09:51:34;1.30;;;1.20;;
11533;SDS011;5823;50.588;8.462;2022-07-25T09:54:00;2.15;;;1.10;;
11533;SDS011;5823;50.588;8.462;2022-07-25T09:56:29;1.10;;;1.00;;
11533;SDS011;5823;50.588;8.462;2022-07-25T09:58:55;1.00;;;1.00;;
11533;SDS011;5823;50.588;8.462;2022-07-25T10:01:24;1.50;;;1.40;;
11533;SDS011;5823;50.588;8.462;2022-07-25T10:03:54;1.10;;;1.10;;
11533;SDS011;5823;50.588;8.462;2022-07-25T10:06:27;1.10;;;1.10;;
11533;SDS011;5823;50.588;8.462;2022-07-25T10:08:56;1.30;;;1.20;;
11533;SDS011;5823;50.588;8.462;2022-07-25T10:11:23;1.38;;;1.27;;
11533;SDS011;5823;50.588;8.462;2022-07-25T10:13:51;1.35;;;1.25;;
11533;SDS011;5823;50.588;8.462;2022-07-25T10:16:18;1.08;;;1.08;;
11533;SDS011;5823;50.588;8.462;2022-07-25T10:18:49;1.02;;;1.00;;
11533;SDS011;5823;50.588;8.462;2022-07-25T10:21:16;1.13;;;1.02;;
11533;SDS011;5823;50.588;8.462;2022-07-25T10:23:42;1.00;;;1.00;;
11533;SDS011;5823;50.588;8.462;2022-07-25T10:26:10;0.95;;;0.95;;
11533;SDS011;5823;50.588;8.462;2022-07-25T10:28:39;0.80;;;0.80;;
11533;SDS011;5823;50.588;8.462;2022-07-25T10:31:21;1.30;;;1.20;;
11533;SDS011;5823;50.588;8.462;2022-07-25T10:33:52;1.40;;;1.30;;
11533;SDS011;5823;50.588;8.462;2022-07-25T10:36:19;1.30;;;1.20;;
11533;SDS011;5823;50.588;8.462;2022-07-25T10:38:46;1.08;;;1.08;;
11533;SDS011;5823;50.588;8.462;2022-07-25T10:41:14;1.00;;;1.00;;
11533;SDS011;5823;50.588;8.462;2022-07-25T10:43:42;1.60;;;1.50;;
11533;SDS011;5823;50.588;8.462;2022-07-25T10:46:10;1.63;;;1.52;;
11533;SDS011;5823;50.588;8.462;2022-07-25T10:48:38;1.40;;;1.30;;
11533;SDS011;5823;50.588;8.462;2022-07-25T10:51:05;1.40;;;1.30;;
11533;SDS011;5823;50.588;8.462;2022-07-25T10:53:33;0.90;;;0.90;;
11533;SDS011;5823;50.588;8.462;2022-07-25T10:56:03;1.10;;;1.10;;
11533;SDS011;5823;50.588;8.462;2022-07-25T10:58:46;1.40;;;1.30;;
11533;SDS011;5823;50.588;8.462;2022-07-25T11:01:14;1.90;;;1.80;;
11533;SDS011;5823;50.588;8.462;2022-07-25T11:03:45;1.90;;;1.80;;
11533;SDS011;5823;50.588;8.462;2022-07-25T11:06:12;1.98;;;1.88;;
11533;SDS011;5823;50.588;8.462;2022-07-25T11:08:39;1.90;;;1.80;;
11533;SDS011;5823;50.588;8.462;2022-07-25T11:11:05;2.53;;;2.33;;
11533;SDS011;5823;50.588;8.462;2022-07-25T11:13:35;2.63;;;2.42;;
11533;SDS011;5823;50.588;8.462;2022-07-25T11:16:01;2.00;;;1.90;;
11533;SDS011;5823;50.588;8.462;2022-07-25T11:18:31;1.90;;;1.80;;
11533;SDS011;5823;50.588;8.462;2022-07-25T11:21:00;1.60;;;1.50;;
11533;SDS011;5823;50.588;8.462;2022-07-25T11:23:26;1.73;;;1.63;;
11533;SDS011;5823;50.588;8.462;2022-07-25T11:26:02;1.63;;;1.52;;
11533;SDS011;5823;50.588;8.462;2022-07-25T11:28:35;1.35;;;1.25;;
11533;SDS011;5823;50.588;8.462;2022-07-25T11:31:02;1.50;;;1.40;;
11533;SDS011;5823;50.588;8.462;2022-07-25T11:33:28;1.45;;;1.35;;
11533;SDS011;5823;50.588;8.462;2022-07-25T11:35:55;1.75;;;1.50;;
11533;SDS011;5823;50.588;8.462;2022-07-25T11:38:24;1.50;;;1.40;;
11533;SDS011;5823;50.588;8.462;2022-07-25T11:40:51;1.13;;;1.13;;
11533;SDS011;5823;50.588;8.462;2022-07-25T11:43:18;1.40;;;1.30;;
11533;SDS011;5823;50.588;8.462;2022-07-25T11:45:53;2.25;;;2.15;;
11533;SDS011;5823;50.588;8.462;2022-07-25T11:48:20;2.10;;;2.00;;
11533;SDS011;5823;50.588;8.462;2022-07-25T11:50:47;1.90;;;1.80;;
11533;SDS011;5823;50.588;8.462;2022-07-25T11:53:13;2.03;;;1.83;;
11533;SDS011;5823;50.588;8.462;2022-07-25T11:55:43;2.28;;;2.17;;
11533;SDS011;5823;50.588;8.462;2022-07-25T11:58:11;2.30;;;2.13;;
11533;SDS011;5823;50.588;8.462;2022-07-25T12:00:40;2.65;;;2.45;;
11533;SDS011;5823;50.588;8.462;2022-07-25T12:03:07;2.00;;;1.90;;
11533;SDS011;5823;50.588;8.462;2022-07-25T12:05:33;1.95;;;1.85;;
11533;SDS011;5823;50.588;8.462;2022-07-25T12:08:06;2.00;;;1.90;;
11533;SDS011;5823;50.588;8.462;2022-07-25T12:10:33;1.70;;;1.60;;
11533;SDS011;5823;50.588;8.462;2022-07-25T12:13:02;1.50;;;1.40;;
11533;SDS011;5823;50.588;8.462;2022-07-25T12:15:29;2.25;;;1.45;;
11533;SDS011;5823;50.588;8.462;2022-07-25T12:17:56;1.50;;;1.40;;
11533;SDS011;5823;50.588;8.462;2022-07-25T12:20:23;1.13;;;1.13;;
11533;SDS011;5823;50.588;8.462;2022-07-25T12:22:50;1.00;;;1.00;;
11533;SDS011;5823;50.588;8.462;2022-07-25T12:25:17;1.30;;;1.20;;
11533;SDS011;5823;50.588;8.462;2022-07-25T12:27:44;1.00;;;1.00;;
11533;SDS011;5823;50.588;8.462;2022-07-25T12:30:12;0.88;;;0.88;;
11533;SDS011;5823;50.588;8.462;2022-07-25T12:32:39;1.23;;;1.02;;
11533;SDS011;5823;50.588;8.462;2022-07-25T12:35:07;1.55;;;1.45;;
11533;SDS011;5823;50.588;8.462;2022-07-25T12:37:33;1.65;;;1.55;;
11533;SDS011;5823;50.588;8.462;2022-07-25T12:40:00;1.60;;;1.50;;
11533;SDS011;5823;50.588;8.462;2022-07-25T12:42:26;1.48;;;1.33;;
11533;SDS011;5823;50.588;8.462;2022-07-25T12:44:53;0.90;;;0.90;;
11533;SDS011;5823;50.588;8.462;2022-07-25T12:47:20;1.00;;;1.00;;
11533;SDS011;5823;50.588;8.462;2022-07-25T12:49:47;1.25;;;1.15;;
11533;SDS011;5823;50.588;8.462;2022-07-25T12:52:13;0.98;;;0.98;;
11533;SDS011;5823;50.588;8.462;2022-07-25T12:54:39;0.90;;;0.90;;
11533;SDS011;5823;50.588;8.462;2022-07-25T12:57:06;1.27;;;1.17;;
11533;SDS011;5823;50.588;8.462;2022-07-25T12:59:32;1.15;;;1.10;;
11533;SDS011;5823;50.588;8.462;2022-07-25T13:01:59;1.00;;;1.00;;
11533;SDS011;5823;50.588;8.462;2022-07-25T13:04:26;0.88;;;0.88;;
11533;SDS011;5823;50.588;8.462;2022-07-25T13:06:53;0.90;;;0.90;;
11533;SDS011;5823;50.588;8.462;2022-07-25T13:09:20;1.30;;;0.95;;
11533;SDS011;5823;50.588;8.462;2022-07-25T13:11:46;1.30;;;1.20;;
11533;SDS011;5823;50.588;8.462;2022-07-25T13:14:13;1.40;;;1.30;;
11533;SDS011;5823;50.588;8.462;2022-07-25T13:16:40;1.40;;;1.30;;
11533;SDS011;5823;50.588;8.462;2022-07-25T13:19:06;1.70;;;1.60;;
11533;SDS011;5823;50.588;8.462;2022-07-25T13:21:34;1.90;;;1.80;;
11533;SDS011;5823;50.588;8.462;2022-07-25T13:24:00;1.58;;;1.48;;
11533;SDS011;5823;50.588;8.462;2022-07-25T13:26:27;1.40;;;1.30;;
11533;SDS011;5823;50.588;8.462;2022-07-25T13:28:53;1.42;;;1.33;;
11533;SDS011;5823;50.588;8.462;2022-07-25T13:31:19;1.40;;;1.30;;
11533;SDS011;5823;50.588;8.462;2022-07-25T13:33:46;1.40;;;1.20;;
11533;SDS011;5823;50.588;8.462;2022-07-25T13:36:13;1.27;;;1.17;;
11533;SDS011;5823;50.588;8.462;2022-07-25T13:38:41;0.95;;;0.95;;
11533;SDS011;5823;50.588;8.462;2022-07-25T13:41:08;0.88;;;0.88;;
11533;SDS011;5823;50.588;8.462;2022-07-25T13:43:35;1.27;;;1.17;;
11533;SDS011;5823;50.588;8.462;2022-07-25T13:46:01;1.15;;;1.15;;
11533;SDS011;5823;50.588;8.462;2022-07-25T13:48:27;1.20;;;1.10;;
11533;SDS011;5823;50.588;8.462;2022-07-25T13:50:54;0.82;;;0.82;;
11533;SDS011;5823;50.588;8.462;2022-07-25T13:53:20;0.70;;;0.70;;
11533;SDS011;5823;50.588;8.462;2022-07-25T13:55:48;0.68;;;0.68;;
11533;SDS011;5823;50.588;8.462;2022-07-25T13:58:15;0.90;;;0.90;;
11533;SDS011;5823;50.588;8.462;2022-07-25T14:00:41;0.90;;;0.90;;
11533;SDS011;5823;50.588;8.462;2022-07-25T14:03:08;0.90;;;0.90;;
11533;SDS011;5823;50.588;8.462;2022-07-25T14:05:34;1.30;;;1.20;;
11533;SDS011;5823;50.588;8.462;2022-07-25T14:08:01;0.70;;;0.70;;
11533;SDS011;5823;50.588;8.462;2022-07-25T14:10:27;0.93;;;0.90;;
11533;SDS011;5823;50.588;8.462;2022-07-25T14:12:55;1.30;;;1.20;;
11533;SDS011;5823;50.588;8.462;2022-07-25T14:15:21;1.30;;;1.20;;
11533;SDS011;5823;50.588;8.462;2022-07-25T14:17:48;1.20;;;1.10;;
11533;SDS011;5823;50.588;8.462;2022-07-25T14:20:14;1.27;;;1.17;;
11533;SDS011;5823;50.588;8.462;2022-07-25T14:22:40;1.00;;;1.00;;
11533;SDS011;5823;50.588;8.462;2022-07-25T14:25:08;1.30;;;1.20;;
11533;SDS011;5823;50.588;8.462;2022-07-25T14:27:35;1.30;;;1.20;;
11533;SDS011;5823;50.588;8.462;2022-07-25T14:30:04;1.30;;;1.20;;
11533;SDS011;5823;50.588;8.462;2022-07-25T14:32:31;1.50;;;1.40;;
11533;SDS011;5823;50.588;8.462;2022-07-25T14:34:57;1.38;;;1.27;;
11533;SDS011;5823;50.588;8.462;2022-07-25T14:37:25;1.80;;;1.70;;
11533;SDS011;5823;50.588;8.462;2022-07-25T14:39:52;1.77;;;1.67;;
11533;SDS011;5823;50.588;8.462;2022-07-25T14:42:19;1.60;;;1.50;;
11533;SDS011;5823;50.588;8.462;2022-07-25T14:44:45;1.60;;;1.50;;
11533;SDS011;5823;50.588;8.462;2022-07-25T14:47:13;1.65;;;1.55;;
11533;SDS011;5823;50.588;8.462;2022-07-25T14:49:39;1.40;;;1.30;;
11533;SDS011;5823;50.588;8.462;2022-07-25T14:52:05;1.50;;;1.40;;
11533;SDS011;5823;50.588;8.462;2022-07-25T14:54:32;1.77;;;1.67;;
11533;SDS011;5823;50.588;8.462;2022-07-25T14:56:58;1.73;;;1.63;;
11533;SDS011;5823;50.588;8.462;2022-07-25T14:59:24;1.65;;;1.55;;